createdAt,value
2019-03-30T00:01:02.462Z,51.20
2019-03-30T00:06:11.794Z,51.50
2019-03-30T00:11:16.189Z,51.10
2019-03-30T00:16:20.438Z,50.90
2019-03-30T00:21:25.110Z,50.90
2019-03-30T00:26:29.426Z,51.00
2019-03-30T00:31:36.093Z,50.90
2019-03-30T00:36:40.755Z,51.30
2019-03-30T00:41:45.315Z,52.30
2019-03-30T00:46:49.925Z,52.70
2019-03-30T00:51:54.607Z,53.00
2019-03-30T00:56:59.124Z,53.20
2019-03-30T01:02:03.753Z,53.20
2019-03-30T01:07:08.358Z,53.20
2019-03-30T01:12:12.933Z,53.20
2019-03-30T01:17:17.412Z,53.20
2019-03-30T01:22:22.203Z,53.20
2019-03-30T01:27:26.599Z,53.30
2019-03-30T01:32:31.314Z,53.10
2019-03-30T01:37:35.632Z,53.20
2019-03-30T01:42:39.970Z,53.00
2019-03-30T01:47:46.489Z,53.00
2019-03-30T01:52:51.377Z,53.00
2019-03-30T01:57:55.817Z,53.10
2019-03-30T02:03:00.446Z,52.90
2019-03-30T02:08:05.464Z,52.80
2019-03-30T02:13:09.893Z,52.90
2019-03-30T02:18:16.180Z,52.80
2019-03-30T02:23:20.448Z,52.70
2019-03-30T02:28:24.720Z,52.80
2019-03-30T02:33:30.287Z,52.70
2019-03-30T02:38:34.627Z,52.70
2019-03-30T02:43:39.052Z,52.70
2019-03-30T02:48:43.412Z,52.70
2019-03-30T02:53:47.895Z,52.50
2019-03-30T02:58:52.806Z,52.50
2019-03-30T03:03:57.353Z,52.60
2019-03-30T03:09:07.396Z,52.40
2019-03-30T03:14:12.154Z,52.40
2019-03-30T03:19:16.410Z,52.50
2019-03-30T03:24:20.863Z,52.30
2019-03-30T03:29:25.369Z,52.30
2019-03-30T03:34:29.704Z,52.40
2019-03-30T03:39:34.356Z,52.20
2019-03-30T03:44:39.035Z,52.20
2019-03-30T03:49:43.454Z,52.20
2019-03-30T03:54:48.121Z,52.20
2019-03-30T03:59:52.508Z,52.20
2019-03-30T04:04:57.076Z,52.00
2019-03-30T04:10:02.537Z,52.10
2019-03-30T04:15:07.584Z,52.10
2019-03-30T04:20:15.333Z,52.10
2019-03-30T04:25:19.806Z,51.90
2019-03-30T04:30:24.179Z,52.00
2019-03-30T04:35:28.523Z,51.80
2019-03-30T04:40:35.361Z,51.90
2019-03-30T04:45:39.679Z,51.90
2019-03-30T04:50:44.257Z,51.70
2019-03-30T04:55:48.877Z,51.80
2019-03-30T05:00:53.330Z,51.60
2019-03-30T05:05:57.997Z,51.50
2019-03-30T05:11:02.592Z,51.50
2019-03-30T05:16:07.038Z,51.50
2019-03-30T05:21:11.285Z,51.70
2019-03-30T05:26:15.463Z,51.60
2019-03-30T05:31:19.754Z,51.50
2019-03-30T05:36:24.210Z,51.50
2019-03-30T05:41:28.753Z,51.40
2019-03-30T05:46:32.996Z,51.50
2019-03-30T05:51:37.432Z,51.40
2019-03-30T05:56:41.773Z,51.30
2019-03-30T06:01:46.442Z,51.40
2019-03-30T06:06:50.881Z,51.30
2019-03-30T06:11:55.124Z,51.10
2019-03-30T06:16:59.582Z,51.10
2019-03-30T06:22:03.843Z,51.10
2019-03-30T06:27:08.299Z,50.90
2019-03-30T06:32:14.697Z,51.10
2019-03-30T06:37:18.898Z,50.80
2019-03-30T06:42:23.135Z,51.00
2019-03-30T06:47:27.404Z,50.80
2019-03-30T06:52:31.675Z,50.90
2019-03-30T06:57:35.891Z,51.00
2019-03-30T07:02:40.274Z,51.00
2019-03-30T07:07:46.293Z,50.90
2019-03-30T07:12:50.603Z,50.90
2019-03-30T07:17:54.942Z,50.90
2019-03-30T07:23:11.119Z,51.00
2019-03-30T07:28:05.201Z,50.90
2019-03-30T07:33:09.483Z,50.80
2019-03-30T07:38:13.737Z,50.90
2019-03-30T07:43:18.143Z,50.90
2019-03-30T07:48:22.379Z,50.80
2019-03-30T07:53:27.123Z,50.70
2019-03-30T07:58:31.710Z,50.80
2019-03-30T08:03:35.916Z,50.80
2019-03-30T08:08:40.538Z,50.60
2019-03-30T08:13:45.109Z,50.70
2019-03-30T08:18:49.367Z,50.90
2019-03-30T08:24:12.717Z,50.60
2019-03-30T08:29:17.054Z,50.20
2019-03-30T08:34:21.351Z,49.90
2019-03-30T08:39:25.604Z,50.50
2019-03-30T08:44:29.939Z,51.10
2019-03-30T08:49:34.199Z,50.80
2019-03-30T08:54:38.504Z,50.50
2019-03-30T08:59:42.706Z,50.50
2019-03-30T09:04:46.896Z,50.60
2019-03-30T09:09:51.141Z,50.60
2019-03-30T09:14:55.753Z,50.90
2019-03-30T09:20:00.069Z,51.80
2019-03-30T09:25:04.312Z,51.70
2019-03-30T09:30:09.877Z,52.90
2019-03-30T09:35:14.076Z,53.00
2019-03-30T09:40:18.493Z,51.70
2019-03-30T09:45:22.758Z,51.60
2019-03-30T09:50:27.144Z,51.50
2019-03-30T09:55:31.389Z,51.20
2019-03-30T10:00:35.729Z,51.30
2019-03-30T10:05:40.104Z,51.30
2019-03-30T10:10:44.799Z,51.20
2019-03-30T10:15:49.071Z,51.10
2019-03-30T10:20:54.248Z,52.80
2019-03-30T10:25:58.671Z,53.20
2019-03-30T10:31:03.133Z,53.10
2019-03-30T10:36:07.377Z,53.60
2019-03-30T10:41:11.766Z,53.80
2019-03-30T10:46:16.180Z,53.70
2019-03-30T10:51:20.548Z,54.90
2019-03-30T10:56:24.720Z,54.90
2019-03-30T11:01:28.943Z,54.10
2019-03-30T11:06:33.292Z,54.00
2019-03-30T11:11:37.507Z,54.10
2019-03-30T11:16:41.777Z,54.50
2019-03-30T11:21:49.738Z,54.70
2019-03-30T11:26:54.092Z,53.50
2019-03-30T11:31:58.412Z,52.10
2019-03-30T11:37:02.889Z,52.60
2019-03-30T11:42:07.448Z,60.80
2019-03-30T11:47:11.736Z,60.90
2019-03-30T11:52:15.940Z,58.30
2019-03-30T11:57:20.329Z,56.60
2019-03-30T12:02:28.125Z,52.50
2019-03-30T12:07:31.622Z,53.20
2019-03-30T12:12:37.451Z,53.30
2019-03-30T12:17:41.792Z,52.50
2019-03-30T12:22:46.001Z,53.70
2019-03-30T12:27:50.600Z,54.00
2019-03-30T12:32:54.904Z,53.00
2019-03-30T12:37:59.143Z,53.70
2019-03-30T12:43:03.545Z,53.90
2019-03-30T12:48:07.886Z,52.60
2019-03-30T12:53:12.150Z,53.20
2019-03-30T12:58:16.520Z,53.90
2019-03-30T13:03:20.974Z,53.40
2019-03-30T13:08:25.419Z,53.10
2019-03-30T13:13:29.791Z,53.40
2019-03-30T13:18:34.023Z,53.70
2019-03-30T13:23:38.491Z,53.20
2019-03-30T13:28:43.276Z,53.40
2019-03-30T13:33:47.492Z,54.00
2019-03-30T13:38:51.933Z,52.80
2019-03-30T13:43:57.366Z,52.70
2019-03-30T13:49:01.770Z,52.80
2019-03-30T13:54:06.287Z,52.60
2019-03-30T13:59:10.663Z,52.60
2019-03-30T14:04:15.003Z,52.70
2019-03-30T14:09:19.499Z,52.20
2019-03-30T14:14:23.766Z,52.40
2019-03-30T14:19:28.046Z,52.40
2019-03-30T14:24:34.352Z,52.30
2019-03-30T14:29:38.828Z,52.20
2019-03-30T14:34:43.668Z,52.90
2019-03-30T14:39:48.233Z,52.30
2019-03-30T14:44:53.445Z,52.60
2019-03-30T14:50:16.817Z,52.20
2019-03-30T14:55:21.096Z,51.70
2019-03-30T15:00:27.216Z,51.90
2019-03-30T15:05:32.158Z,51.70
2019-03-30T15:10:36.598Z,52.50
2019-03-30T15:15:41.024Z,52.10
2019-03-30T15:20:45.314Z,51.40
2019-03-30T15:25:49.613Z,51.60
2019-03-30T15:30:53.936Z,51.30
2019-03-30T15:35:58.238Z,51.40
2019-03-30T15:41:02.802Z,51.00
2019-03-30T15:46:07.218Z,51.10
2019-03-30T15:51:12.563Z,51.30
2019-03-30T15:56:16.996Z,51.10
2019-03-30T16:01:21.613Z,51.00
2019-03-30T16:06:26.293Z,51.10
2019-03-30T16:11:30.665Z,50.90
2019-03-30T16:16:35.037Z,51.00
2019-03-30T16:21:39.402Z,51.00
2019-03-30T16:26:43.934Z,50.90
2019-03-30T16:31:48.273Z,50.90
2019-03-30T16:36:53.158Z,50.50
2019-03-30T16:41:57.738Z,51.20
2019-03-30T16:47:02.062Z,50.80
2019-03-30T16:52:06.411Z,50.60
2019-03-30T16:57:10.714Z,50.60
2019-03-30T17:02:17.147Z,50.60
2019-03-30T17:07:21.528Z,50.50
2019-03-30T17:12:26.149Z,50.40
2019-03-30T17:17:33.276Z,50.50
2019-03-30T17:22:37.498Z,50.30
2019-03-30T17:27:56.921Z,50.30
2019-03-30T17:32:48.658Z,50.30
2019-03-30T17:37:53.038Z,50.20
2019-03-30T17:42:57.702Z,50.10
2019-03-30T17:48:01.977Z,50.10
2019-03-30T17:53:06.218Z,50.30
2019-03-30T17:58:13.380Z,50.10
2019-03-30T18:03:18.597Z,50.10
2019-03-30T18:08:22.868Z,49.90
2019-03-30T18:13:27.049Z,49.80
2019-03-30T18:18:31.339Z,49.60
2019-03-30T18:23:35.871Z,49.90
2019-03-30T18:28:40.109Z,49.50
2019-03-30T18:33:44.422Z,49.70
2019-03-30T18:38:48.793Z,49.60
2019-03-30T18:43:53.038Z,49.70
2019-03-30T18:48:57.382Z,49.60
2019-03-30T18:54:04.281Z,49.40
2019-03-30T18:59:09.411Z,49.50
2019-03-30T19:04:15.579Z,49.60
2019-03-30T19:09:19.961Z,49.50
2019-03-30T19:14:28.077Z,49.40
2019-03-30T19:19:33.733Z,49.30
2019-03-30T19:24:38.064Z,49.30
2019-03-30T19:29:42.284Z,49.30
2019-03-30T19:34:46.995Z,49.30
2019-03-30T19:39:51.297Z,49.30
2019-03-30T19:44:55.612Z,49.30
2019-03-30T19:49:59.932Z,49.20
2019-03-30T19:55:04.383Z,49.30
2019-03-30T20:00:09.665Z,49.20
2019-03-30T20:05:14.000Z,49.30
2019-03-30T20:10:19.167Z,49.00
2019-03-30T20:15:23.447Z,49.20
2019-03-30T20:20:28.276Z,49.70
2019-03-30T20:25:32.649Z,49.00
2019-03-30T20:30:37.054Z,49.00
2019-03-30T20:35:41.349Z,49.10
2019-03-30T20:40:45.771Z,49.00
2019-03-30T20:45:50.236Z,49.20
2019-03-30T20:50:54.563Z,49.90
2019-03-30T20:55:58.840Z,53.90
2019-03-30T21:01:03.297Z,53.80
2019-03-30T21:06:29.435Z,53.20
2019-03-30T21:11:33.714Z,54.20
2019-03-30T21:16:38.037Z,54.70
2019-03-30T21:21:42.298Z,53.80
2019-03-30T21:26:46.855Z,53.70
2019-03-30T21:31:51.101Z,53.20
2019-03-30T21:36:55.431Z,53.00
2019-03-30T21:41:59.705Z,53.00
2019-03-30T21:47:04.274Z,51.90
2019-03-30T21:52:08.995Z,52.20
2019-03-30T21:57:13.312Z,52.00
2019-03-30T22:02:18.998Z,52.30
2019-03-30T22:07:23.379Z,52.00
2019-03-30T22:12:27.655Z,51.70
2019-03-30T22:17:32.019Z,51.70
2019-03-30T22:22:36.514Z,51.80
2019-03-30T22:27:40.940Z,51.70
2019-03-30T22:32:45.173Z,51.70
2019-03-30T22:37:49.377Z,51.70
2019-03-30T22:42:55.607Z,51.40
2019-03-30T22:47:59.679Z,51.40
2019-03-30T22:53:05.823Z,51.40
2019-03-30T22:58:09.819Z,51.20
2019-03-30T23:03:14.360Z,51.10
2019-03-30T23:08:18.607Z,50.70
2019-03-30T23:13:29.256Z,50.40
2019-03-30T23:18:35.247Z,50.30
2019-03-30T23:23:39.505Z,49.80
2019-03-30T23:28:44.030Z,49.30
2019-03-30T23:33:48.178Z,49.80
2019-03-30T23:38:52.375Z,49.70
2019-03-30T23:43:56.780Z,49.80
2019-03-30T23:49:01.010Z,49.50
2019-03-30T23:54:05.320Z,49.40
2019-03-30T23:59:09.605Z,49.50
